ELY5129 LLBG-LUKK
Flight info
| Callsign | ELY5129 |
|---|---|
| Flight time | N/A |
| Altitude | 36000 |
| Route | SUVAS N128 TEZAK L324 SAFTA DCT TOMBI UA16 AYT UQ23 OSVEL UL619 MAKOL DCT LUGEB DCT RIPGA DCT KODRU T34 LIPTA |
| Aircraft | B738/M-SDE2E3FGHIRWXY/LB1 |
Departure
| Time | 2026-05-04 09:49 |
|---|---|
| Airport | Ben Gurion International Airport (LLBG) |
Arrival
| Time | N/A |
|---|---|
| Airport | Chişinău International Airport (LUKK) |
| Time | Latitude | Longitude | Altitude | Speed | Heading |
|---|---|---|---|---|---|
| 2026-05-04 09:20 | 32.00611 | 34.87091 | 112 ft | 0 kts | 146° |
| 2026-05-04 09:35 | 32.00624 | 34.87080 | 111 ft | 4 kts | 140° |
| 2026-05-04 09:37 | 32.00647 | 34.87009 | 112 ft | 0 kts | 33° |
| 2026-05-04 09:39 | 32.00649 | 34.87011 | 115 ft | 1 kts | 33° |
| 2026-05-04 09:40 | 32.00669 | 34.87026 | 112 ft | 6 kts | 32° |
| 2026-05-04 09:40 | 32.00717 | 34.87061 | 112 ft | 10 kts | 32° |
| 2026-05-04 09:40 | 32.00792 | 34.87116 | 115 ft | 15 kts | 31° |
| 2026-05-04 09:40 | 32.00889 | 34.87183 | 115 ft | 16 kts | 35° |
| 2026-05-04 09:41 | 32.00892 | 34.87265 | 113 ft | 11 kts | 117° |
| 2026-05-04 09:42 | 32.00712 | 34.88005 | 114 ft | 18 kts | 31° |
| 2026-05-04 09:43 | 32.00812 | 34.88077 | 116 ft | 17 kts | 31° |
| 2026-05-04 09:43 | 32.00921 | 34.88156 | 118 ft | 20 kts | 32° |
| 2026-05-04 09:43 | 32.01047 | 34.88244 | 121 ft | 22 kts | 30° |
| 2026-05-04 09:43 | 32.01184 | 34.88343 | 121 ft | 23 kts | 32° |
| 2026-05-04 09:44 | 32.01303 | 34.88445 | 120 ft | 18 kts | 42° |
| 2026-05-04 09:44 | 32.01381 | 34.88546 | 122 ft | 17 kts | 53° |
| 2026-05-04 09:44 | 32.01447 | 34.88673 | 123 ft | 19 kts | 65° |
| 2026-05-04 09:46 | 32.01640 | 34.89148 | 126 ft | 1 kts | 349° |
| 2026-05-04 09:46 | 32.01649 | 34.89145 | 127 ft | 2 kts | 348° |
| 2026-05-04 09:46 | 32.01672 | 34.89141 | 126 ft | 5 kts | 350° |
| 2026-05-04 09:47 | 32.01725 | 34.89131 | 124 ft | 9 kts | 351° |
| 2026-05-04 09:47 | 32.01746 | 34.89102 | 126 ft | 5 kts | 268° |
| 2026-05-04 09:49 | 32.01554 | 34.87846 | 117 ft | 135 kts | 259° |
| 2026-05-04 09:49 | 32.01365 | 34.86640 | 477 ft | 154 kts | 257° |
| 2026-05-04 09:49 | 32.01190 | 34.85420 | 1293 ft | 153 kts | 258° |
| 2026-05-04 09:51 | 31.99339 | 34.76527 | 3922 ft | 233 kts | 257° |
| 2026-05-04 09:51 | 31.99283 | 34.74626 | 4607 ft | 241 kts | 278° |
| 2026-05-04 09:51 | 31.99760 | 34.72728 | 5448 ft | 241 kts | 287° |
| 2026-05-04 09:51 | 32.00352 | 34.70880 | 6286 ft | 243 kts | 287° |
| 2026-05-04 09:52 | 32.00960 | 34.68989 | 6944 ft | 249 kts | 287° |
| 2026-05-04 09:52 | 32.01571 | 34.67059 | 7616 ft | 253 kts | 287° |
| 2026-05-04 09:52 | 32.02181 | 34.65118 | 7967 ft | 255 kts | 287° |
| 2026-05-04 09:52 | 32.02709 | 34.63126 | 7977 ft | 252 kts | 276° |
| 2026-05-04 09:53 | 32.02822 | 34.61082 | 8000 ft | 250 kts | 271° |
| 2026-05-04 09:53 | 32.02908 | 34.59046 | 8002 ft | 253 kts | 272° |
| 2026-05-04 09:53 | 32.03010 | 34.56969 | 8364 ft | 256 kts | 272° |
| 2026-05-04 09:53 | 32.03118 | 34.54871 | 9143 ft | 256 kts | 272° |
| 2026-05-04 09:54 | 32.03229 | 34.52768 | 9881 ft | 258 kts | 272° |
| 2026-05-04 09:54 | 32.03397 | 34.50649 | 10502 ft | 264 kts | 279° |
| 2026-05-04 09:54 | 32.03886 | 34.48468 | 10704 ft | 287 kts | 285° |
| 2026-05-04 09:54 | 32.04526 | 34.46146 | 10872 ft | 307 kts | 286° |
| 2026-05-04 09:55 | 32.05222 | 34.43681 | 11021 ft | 326 kts | 286° |
| 2026-05-04 09:55 | 32.05938 | 34.41109 | 11167 ft | 343 kts | 286° |
| 2026-05-04 09:55 | 32.06685 | 34.38378 | 11486 ft | 354 kts | 286° |
| 2026-05-04 09:55 | 32.07431 | 34.35605 | 12058 ft | 356 kts | 285° |
| 2026-05-04 09:56 | 32.08173 | 34.32815 | 12733 ft | 356 kts | 285° |
| 2026-05-04 09:56 | 32.08909 | 34.30023 | 13387 ft | 358 kts | 285° |
| 2026-05-04 09:56 | 32.09647 | 34.27209 | 14019 ft | 360 kts | 285° |
| 2026-05-04 09:56 | 32.10385 | 34.24385 | 14643 ft | 360 kts | 284° |
| 2026-05-04 09:57 | 32.11119 | 34.21570 | 15327 ft | 359 kts | 284° |
| 2026-05-04 09:57 | 32.11857 | 34.18740 | 15982 ft | 360 kts | 284° |
| 2026-05-04 09:57 | 32.12591 | 34.15918 | 16630 ft | 360 kts | 283° |
| 2026-05-04 09:57 | 32.13325 | 34.13095 | 17291 ft | 360 kts | 283° |
| 2026-05-04 09:58 | 32.14058 | 34.10271 | 17894 ft | 360 kts | 283° |
| 2026-05-04 09:58 | 32.14796 | 34.07430 | 18451 ft | 361 kts | 282° |
| 2026-05-04 09:58 | 32.15532 | 34.04589 | 18909 ft | 363 kts | 282° |
| 2026-05-04 10:00 | 32.24903 | 33.86003 | 21925 ft | 391 kts | 298° |
| 2026-05-04 10:00 | 32.26491 | 33.83376 | 22347 ft | 393 kts | 298° |